createdAt,value
2023-03-11T00:01:35.946Z,96763.56
2023-03-11T00:03:40.768Z,96732.72
2023-03-11T00:05:47.872Z,96758.75
2023-03-11T00:07:52.767Z,96750.25
2023-03-11T00:09:57.524Z,96740.81
2023-03-11T00:12:05.421Z,96776.78
2023-03-11T00:14:10.370Z,96765.88
2023-03-11T00:16:15.231Z,96792.31
2023-03-11T00:18:21.246Z,96772.53
2023-03-11T00:20:28.043Z,96787.97
2023-03-11T00:22:32.871Z,96792.19
2023-03-11T00:24:37.873Z,96818.38
2023-03-11T00:26:42.688Z,96784.91
2023-03-11T00:28:50.488Z,96789.69
2023-03-11T00:30:55.535Z,96799.97
2023-03-11T00:33:01.165Z,96797.63
2023-03-11T00:35:07.554Z,96812.44
2023-03-11T00:37:12.460Z,96844.91
2023-03-11T00:39:17.239Z,96821.94
2023-03-11T00:41:22.215Z,96837.41
2023-03-11T00:43:27.226Z,96833.84
2023-03-11T00:45:34.867Z,96831.41
2023-03-11T00:47:39.724Z,96841.53
2023-03-11T00:49:44.638Z,96837.09
2023-03-11T00:51:49.545Z,96847.41
2023-03-11T00:53:54.409Z,96839.75
2023-03-11T00:55:59.340Z,96859.72
2023-03-11T00:58:06.418Z,96858.88
2023-03-11T01:00:21.507Z,96892.13
2023-03-11T01:02:29.422Z,96864.88
2023-03-11T01:04:34.307Z,96888.69
2023-03-11T01:06:45.189Z,96867.44
2023-03-11T01:08:50.650Z,96881.94
2023-03-11T01:10:55.554Z,96889.25
2023-03-11T01:13:00.756Z,96881.69
2023-03-11T01:15:06.427Z,96900.66
2023-03-11T01:17:11.223Z,96899.91
2023-03-11T01:19:19.241Z,96900.09
2023-03-11T01:21:25.378Z,96906.22
2023-03-11T01:23:32.609Z,96911.50
2023-03-11T01:25:37.685Z,96907.34
2023-03-11T01:27:42.479Z,96903.16
2023-03-11T01:29:47.356Z,96911.78
2023-03-11T01:31:52.180Z,96907.59
2023-03-11T01:33:57.103Z,96903.34
2023-03-11T01:36:04.541Z,96909.50
2023-03-11T01:38:09.433Z,96910.31
2023-03-11T01:40:20.242Z,96919.56
2023-03-11T01:42:25.109Z,96919.31
2023-03-11T01:44:30.755Z,96931.22
2023-03-11T01:47:02.240Z,96920.13
2023-03-11T01:49:15.380Z,96924.72
2023-03-11T01:51:28.726Z,96935.06
2023-03-11T01:53:33.741Z,96923.19
2023-03-11T01:55:39.257Z,96933.53
2023-03-11T01:57:47.438Z,96936.00
2023-03-11T01:59:56.060Z,96924.91
2023-03-11T02:02:04.986Z,96935.31
2023-03-11T02:04:09.835Z,96926.06
2023-03-11T02:06:18.965Z,96950.84
2023-03-11T02:08:26.826Z,96931.31
2023-03-11T02:10:33.351Z,96932.03
2023-03-11T02:12:39.969Z,96932.31
2023-03-11T02:14:48.409Z,96929.47
2023-03-11T02:16:53.214Z,96938.84
2023-03-11T02:18:58.630Z,96930.44
2023-03-11T02:21:12.686Z,96937.28
2023-03-11T02:23:19.489Z,96945.88
2023-03-11T02:25:31.757Z,96923.72
2023-03-11T02:27:42.954Z,96942.56
2023-03-11T02:29:51.668Z,96940.78
2023-03-11T02:31:58.779Z,96964.69
2023-03-11T02:34:06.535Z,96969.16
2023-03-11T02:36:36.140Z,96979.91
2023-03-11T02:38:42.285Z,96998.53
2023-03-11T02:40:59.483Z,96991.06
2023-03-11T02:43:11.072Z,97007.13
2023-03-11T02:45:21.308Z,97004.59
2023-03-11T02:47:26.893Z,97004.53
2023-03-11T02:49:32.987Z,96999.25
2023-03-11T02:51:38.243Z,96995.84
2023-03-11T02:53:47.790Z,97004.44
2023-03-11T02:55:53.095Z,97003.72
2023-03-11T02:57:57.854Z,97007.00
2023-03-11T03:00:11.153Z,97016.38
2023-03-11T03:02:16.820Z,97007.00
2023-03-11T03:04:21.849Z,97014.69
2023-03-11T03:06:28.668Z,97010.41
2023-03-11T03:08:33.507Z,97011.22
2023-03-11T03:10:38.450Z,97016.47
2023-03-11T03:12:43.339Z,97020.28
2023-03-11T03:14:48.196Z,97022.25
2023-03-11T03:16:57.474Z,97007.63
2023-03-11T03:19:02.387Z,97008.53
2023-03-11T03:21:08.213Z,97019.66
2023-03-11T03:23:13.183Z,97017.13
2023-03-11T03:25:18.099Z,97026.59
2023-03-11T03:27:23.753Z,97026.66
2023-03-11T03:29:29.429Z,97027.41
2023-03-11T03:31:34.329Z,97037.88
2023-03-11T03:33:43.076Z,97037.13
2023-03-11T03:35:49.211Z,97038.03
2023-03-11T03:37:59.022Z,97035.59
2023-03-11T03:40:07.457Z,97039.69
2023-03-11T03:42:13.318Z,97037.00
2023-03-11T03:44:19.229Z,97040.72
2023-03-11T03:46:25.620Z,97040.81
2023-03-11T03:48:34.309Z,97053.47
2023-03-11T03:50:45.107Z,97054.34
2023-03-11T03:52:53.232Z,97053.50
2023-03-11T03:55:00.000Z,97063.75
2023-03-11T03:57:06.513Z,97067.06
2023-03-11T03:59:17.838Z,97066.16
2023-03-11T04:01:27.790Z,97065.16
2023-03-11T04:03:35.292Z,97056.63
2023-03-11T04:05:47.958Z,97067.72
2023-03-11T04:07:52.941Z,97064.34
2023-03-11T04:09:59.093Z,97066.81
2023-03-11T04:12:04.078Z,97062.75
2023-03-11T04:14:11.593Z,97081.56
2023-03-11T04:16:25.749Z,97070.50
2023-03-11T04:18:36.792Z,97080.72
2023-03-11T04:20:43.760Z,97079.81
2023-03-11T04:22:51.173Z,97081.69
2023-03-11T04:24:57.553Z,97082.53
2023-03-11T04:27:02.584Z,97079.19
2023-03-11T04:29:09.722Z,97083.59
2023-03-11T04:31:19.859Z,97080.28
2023-03-11T04:33:25.098Z,97089.09
2023-03-11T04:35:30.187Z,97095.06
2023-03-11T04:37:35.697Z,97092.50
2023-03-11T04:39:43.207Z,97102.00
2023-03-11T04:41:48.067Z,97097.94
2023-03-11T04:43:56.663Z,97099.75
2023-03-11T04:46:01.582Z,97105.09
2023-03-11T04:48:07.297Z,97107.72
2023-03-11T04:50:14.088Z,97106.66
2023-03-11T04:52:19.842Z,97110.84
2023-03-11T04:54:24.737Z,97112.63
2023-03-11T04:56:33.288Z,97121.00
2023-03-11T04:58:38.442Z,97130.44
2023-03-11T05:00:43.880Z,97132.88
2023-03-11T05:02:51.000Z,97119.88
2023-03-11T05:04:55.861Z,97127.63
2023-03-11T05:07:00.813Z,97129.13
2023-03-11T05:09:05.913Z,97134.44
2023-03-11T05:11:13.765Z,97133.88
2023-03-11T05:13:23.832Z,97125.38
2023-03-11T05:15:34.456Z,97123.84
2023-03-11T05:17:40.659Z,97127.28
2023-03-11T05:19:46.132Z,97140.16
2023-03-11T05:21:57.777Z,97129.22
2023-03-11T05:24:04.065Z,97138.56
2023-03-11T05:26:09.656Z,97147.00
2023-03-11T05:28:15.593Z,97157.31
2023-03-11T05:30:29.835Z,97158.09
2023-03-11T05:32:36.272Z,97164.03
2023-03-11T05:34:44.168Z,97165.78
2023-03-11T05:36:49.401Z,97167.44
2023-03-11T05:38:55.909Z,97166.41
2023-03-11T05:41:01.121Z,97170.63
2023-03-11T05:43:06.103Z,97172.38
2023-03-11T05:45:15.592Z,97167.16
2023-03-11T05:47:25.852Z,97174.88
2023-03-11T05:49:33.754Z,97172.28
2023-03-11T05:51:38.563Z,97166.16
2023-03-11T05:53:48.262Z,97172.84
2023-03-11T05:56:00.812Z,97171.22
2023-03-11T05:58:06.293Z,97172.97
2023-03-11T06:00:13.960Z,97177.19
2023-03-11T06:02:21.152Z,97184.75
2023-03-11T06:04:29.645Z,97187.16
2023-03-11T06:06:35.396Z,97181.03
2023-03-11T06:08:40.240Z,97197.84
2023-03-11T06:10:48.784Z,97198.91
2023-03-11T06:12:54.852Z,97197.94
2023-03-11T06:15:07.746Z,97207.34
2023-03-11T06:17:15.973Z,97214.06
2023-03-11T06:19:21.633Z,97219.06
2023-03-11T06:21:31.751Z,97210.63
2023-03-11T06:23:36.937Z,97219.91
2023-03-11T06:25:42.246Z,97214.84
2023-03-11T06:27:51.708Z,97217.63
2023-03-11T06:29:57.596Z,97215.00
2023-03-11T06:32:03.459Z,97224.41
2023-03-11T06:34:08.554Z,97233.47
2023-03-11T06:36:15.175Z,97235.28
2023-03-11T06:38:22.568Z,97231.72
2023-03-11T06:40:27.504Z,97234.09
2023-03-11T06:42:35.175Z,97240.94
2023-03-11T06:44:40.944Z,97244.88
2023-03-11T06:46:46.206Z,97244.72
2023-03-11T06:48:52.714Z,97244.03
2023-03-11T06:50:59.903Z,97245.84
2023-03-11T06:53:07.934Z,97262.13
2023-03-11T06:55:16.759Z,97266.28
2023-03-11T06:57:21.928Z,97267.97
2023-03-11T06:59:28.426Z,97274.00
2023-03-11T07:01:33.915Z,97270.97
2023-03-11T07:03:40.988Z,97278.50
2023-03-11T07:05:45.823Z,97282.00
2023-03-11T07:07:50.750Z,97282.66
2023-03-11T07:09:58.133Z,97284.03
2023-03-11T07:12:06.806Z,97284.03
2023-03-11T07:14:14.621Z,97288.25
2023-03-11T07:16:26.017Z,97290.75
2023-03-11T07:18:38.498Z,97290.91
2023-03-11T07:20:43.853Z,97294.22
2023-03-11T07:22:48.601Z,97306.16
2023-03-11T07:24:53.650Z,97297.28
2023-03-11T07:26:58.468Z,97306.56
2023-03-11T07:29:05.991Z,97309.06
2023-03-11T07:31:11.590Z,97297.97
2023-03-11T07:33:16.380Z,97313.38
2023-03-11T07:35:21.181Z,97309.06
2023-03-11T07:37:26.017Z,97314.81
2023-03-11T07:39:31.046Z,97315.72
2023-03-11T07:41:39.087Z,97323.81
2023-03-11T07:43:44.866Z,97323.03
2023-03-11T07:45:52.363Z,97325.75
2023-03-11T07:47:57.346Z,97332.34
2023-03-11T07:50:02.126Z,97333.94
2023-03-11T07:52:07.469Z,97338.00
2023-03-11T07:54:13.709Z,97339.81
2023-03-11T07:56:20.358Z,97350.63
2023-03-11T07:58:25.326Z,97353.88
2023-03-11T08:00:30.124Z,97357.41
2023-03-11T08:02:37.550Z,97358.47
2023-03-11T08:04:42.333Z,97361.13
2023-03-11T08:06:49.890Z,97376.59
2023-03-11T08:08:54.972Z,97379.19
2023-03-11T08:10:59.780Z,97373.66
2023-03-11T08:13:04.591Z,97371.91
2023-03-11T08:15:11.083Z,97371.00
2023-03-11T08:17:16.350Z,97380.13
2023-03-11T08:19:23.745Z,97380.97
2023-03-11T08:21:32.042Z,97378.38
2023-03-11T08:23:37.528Z,97374.31
2023-03-11T08:25:42.648Z,97378.81
2023-03-11T08:27:47.539Z,97389.84
2023-03-11T08:29:52.410Z,97397.69
2023-03-11T08:31:57.280Z,97401.53
2023-03-11T08:34:04.211Z,97404.69
2023-03-11T08:36:12.407Z,97408.84
2023-03-11T08:38:17.240Z,97407.66
2023-03-11T08:40:22.270Z,97403.25
2023-03-11T08:42:26.881Z,97408.06
2023-03-11T08:44:31.935Z,97400.31
2023-03-11T08:46:37.472Z,97400.88
2023-03-11T08:48:42.250Z,97402.34
2023-03-11T08:50:53.893Z,97396.97
2023-03-11T08:53:03.341Z,97397.75
2023-03-11T08:55:11.442Z,97404.09
2023-03-11T08:57:16.197Z,97405.03
2023-03-11T08:59:20.982Z,97412.66
2023-03-11T09:01:26.200Z,97422.28
2023-03-11T09:03:34.099Z,97428.22
2023-03-11T09:05:39.274Z,97427.66
2023-03-11T09:07:44.118Z,97436.88
2023-03-11T09:09:54.717Z,97427.06
2023-03-11T09:11:59.599Z,97418.09
2023-03-11T09:14:04.475Z,97427.47
2023-03-11T09:16:10.102Z,97416.69
2023-03-11T09:18:16.085Z,97414.03
2023-03-11T09:20:21.205Z,97420.22
2023-03-11T09:22:26.081Z,97425.00
2023-03-11T09:24:31.184Z,97427.75
2023-03-11T09:26:40.998Z,97432.81
2023-03-11T09:28:49.303Z,97432.28
2023-03-11T09:30:54.405Z,97451.34
2023-03-11T09:32:59.443Z,97447.25
2023-03-11T09:35:04.248Z,97437.47
2023-03-11T09:37:09.309Z,97434.66
2023-03-11T09:39:14.296Z,97430.75
2023-03-11T09:41:29.016Z,97437.88
2023-03-11T09:43:49.976Z,97438.16
2023-03-11T09:46:03.665Z,97440.63
2023-03-11T09:48:21.748Z,97442.38
2023-03-11T09:50:33.903Z,97460.19
2023-03-11T09:52:45.945Z,97469.22
2023-03-11T09:54:54.180Z,97470.50
2023-03-11T09:56:59.702Z,97490.97
2023-03-11T09:59:10.921Z,97499.34
2023-03-11T10:01:20.948Z,97509.38
2023-03-11T10:03:32.786Z,97514.56
2023-03-11T10:05:37.689Z,97515.72
2023-03-11T10:07:44.095Z,97526.69
2023-03-11T10:09:53.867Z,97522.88
2023-03-11T10:12:17.668Z,97521.53
2023-03-11T10:14:40.217Z,97513.28
2023-03-11T10:16:52.553Z,97513.19
2023-03-11T10:19:06.536Z,97505.03
2023-03-11T10:21:21.828Z,97491.47
2023-03-11T10:23:35.847Z,97484.75
2023-03-11T10:25:52.107Z,97484.56
2023-03-11T10:28:01.724Z,97494.16
2023-03-11T10:30:28.158Z,97486.69
2023-03-11T10:32:40.748Z,97487.13
2023-03-11T10:34:49.768Z,97491.56
2023-03-11T10:37:03.928Z,97487.88
2023-03-11T10:39:09.621Z,97500.41
2023-03-11T10:41:21.292Z,97483.03
2023-03-11T10:43:31.781Z,97493.06
2023-03-11T10:45:43.464Z,97483.28
2023-03-11T10:47:48.213Z,97483.13
2023-03-11T10:49:53.295Z,97483.66
2023-03-11T10:51:58.586Z,97484.28
2023-03-11T10:54:05.089Z,97474.75
2023-03-11T10:56:26.924Z,97478.13
2023-03-11T10:58:33.489Z,97486.31
2023-03-11T11:00:40.809Z,97484.69
2023-03-11T11:02:58.137Z,97477.53
2023-03-11T11:05:28.078Z,97480.84
2023-03-11T11:07:35.234Z,97475.75
2023-03-11T11:09:40.113Z,97486.28
2023-03-11T11:11:45.652Z,97476.78
2023-03-11T11:13:59.521Z,97477.50
2023-03-11T11:16:08.947Z,97488.22
2023-03-11T11:18:21.027Z,97496.00
2023-03-11T11:20:27.724Z,97488.22
2023-03-11T11:22:33.017Z,97485.91
2023-03-11T11:24:38.666Z,97498.38
2023-03-11T11:26:43.510Z,97496.78
2023-03-11T11:28:48.369Z,97505.91
2023-03-11T11:30:57.812Z,97496.19
2023-03-11T11:33:26.719Z,97496.88
2023-03-11T11:35:31.498Z,97490.28
2023-03-11T11:37:38.549Z,97493.28
2023-03-11T11:39:52.231Z,97496.34
2023-03-11T11:41:59.481Z,97495.34
2023-03-11T11:44:07.786Z,97497.88
2023-03-11T11:46:21.987Z,97490.72
2023-03-11T11:48:37.367Z,97489.06
2023-03-11T11:50:47.960Z,97483.09
2023-03-11T11:52:56.457Z,97486.38
2023-03-11T11:55:06.702Z,97494.53
2023-03-11T11:57:15.392Z,97484.97
2023-03-11T11:59:21.863Z,97491.16
2023-03-11T12:01:41.918Z,97489.53
2023-03-11T12:04:28.304Z,97490.44
2023-03-11T12:06:40.854Z,97487.94
2023-03-11T12:08:50.373Z,97480.16
2023-03-11T12:11:00.947Z,97488.16
2023-03-11T12:13:46.267Z,97491.41
2023-03-11T12:15:56.418Z,97487.50
2023-03-11T12:18:37.590Z,97481.94
2023-03-11T12:20:59.594Z,97498.13
2023-03-11T12:23:50.051Z,97487.66
2023-03-11T12:26:28.765Z,97489.09
2023-03-11T12:29:02.754Z,97492.69
2023-03-11T12:31:12.349Z,97496.09
2023-03-11T12:33:23.768Z,97499.00
2023-03-11T12:35:30.877Z,97504.25
2023-03-11T12:37:52.540Z,97503.75
2023-03-11T12:40:42.498Z,97498.72
2023-03-11T12:46:02.484Z,97496.09
2023-03-11T12:48:48.983Z,97504.06
2023-03-11T12:51:03.252Z,97500.13
2023-03-11T12:53:27.725Z,97500.50
2023-03-11T12:55:40.580Z,97495.84
2023-03-11T12:57:58.580Z,97498.59
2023-03-11T13:00:25.641Z,97503.53
2023-03-11T13:03:19.739Z,97496.59
2023-03-11T13:05:32.757Z,97500.72
2023-03-11T13:07:46.062Z,97502.28
2023-03-11T13:10:16.961Z,97509.28
2023-03-11T13:12:45.101Z,97511.94
2023-03-11T13:15:01.247Z,97510.03
2023-03-11T13:17:38.118Z,97517.41
2023-03-11T13:20:00.311Z,97515.94
2023-03-11T13:22:06.780Z,97512.19
2023-03-11T13:24:47.365Z,97518.19
2023-03-11T13:26:55.364Z,97520.63
2023-03-11T13:29:41.771Z,97522.59
2023-03-11T13:32:05.759Z,97521.94
2023-03-11T13:34:26.129Z,97524.31
2023-03-11T13:36:52.108Z,97528.75
2023-03-11T13:39:34.480Z,97538.09
2023-03-11T13:41:45.745Z,97538.22
2023-03-11T13:44:03.038Z,97549.34
2023-03-11T13:46:40.543Z,97550.81
2023-03-11T13:48:56.359Z,97538.50
2023-03-11T13:51:14.921Z,97551.66
2023-03-11T13:53:31.158Z,97544.56
2023-03-11T13:55:55.585Z,97545.59
2023-03-11T13:58:18.412Z,97548.50
2023-03-11T14:00:44.970Z,97551.66
2023-03-11T14:03:05.245Z,97561.88
2023-03-11T14:05:23.814Z,97554.22
2023-03-11T14:07:45.066Z,97558.06
2023-03-11T14:09:55.705Z,97552.00
2023-03-11T14:12:07.862Z,97560.22
2023-03-11T14:14:30.841Z,97559.03
2023-03-11T14:16:44.389Z,97553.22
2023-03-11T14:18:50.836Z,97567.09
2023-03-11T14:20:59.335Z,97560.41
2023-03-11T14:23:04.270Z,97567.03
2023-03-11T14:25:10.345Z,97561.50
2023-03-11T14:27:19.326Z,97557.59
2023-03-11T14:29:31.455Z,97565.50
2023-03-11T14:31:37.894Z,97569.25
2023-03-11T14:33:42.685Z,97562.06
2023-03-11T14:35:55.109Z,97562.03
2023-03-11T14:38:03.006Z,97558.91
2023-03-11T14:40:27.689Z,97557.50
2023-03-11T14:42:37.504Z,97562.94
2023-03-11T14:44:45.348Z,97565.94
2023-03-11T14:46:52.122Z,97564.47
2023-03-11T14:48:59.020Z,97579.75
2023-03-11T14:51:07.054Z,97573.75
2023-03-11T14:53:20.433Z,97574.50
2023-03-11T14:55:27.806Z,97578.31
2023-03-11T14:57:40.790Z,97580.25
2023-03-11T14:59:47.362Z,97573.94
2023-03-11T15:01:53.675Z,97573.44
2023-03-11T15:04:03.657Z,97575.00
2023-03-11T15:06:11.692Z,97579.38
2023-03-11T15:08:21.267Z,97582.72
2023-03-11T15:10:26.212Z,97587.91
2023-03-11T15:12:35.718Z,97590.97
2023-03-11T15:14:52.596Z,97595.16
2023-03-11T15:16:59.334Z,97601.69
2023-03-11T15:19:23.626Z,97605.19
2023-03-11T15:21:28.561Z,97611.69
2023-03-11T15:23:38.004Z,97605.47
2023-03-11T15:25:43.015Z,97610.50
2023-03-11T15:27:48.489Z,97606.34
2023-03-11T15:29:54.615Z,97605.34
2023-03-11T15:32:00.030Z,97598.44
2023-03-11T15:34:25.556Z,97598.84
2023-03-11T15:36:32.893Z,97607.25
2023-03-11T15:38:40.427Z,97612.09
2023-03-11T15:40:54.560Z,97606.38
2023-03-11T15:43:30.716Z,97597.50
2023-03-11T15:45:39.531Z,97596.50
2023-03-11T15:47:45.264Z,97611.06
2023-03-11T15:49:50.328Z,97606.41
2023-03-11T15:51:55.229Z,97610.47
2023-03-11T15:54:02.624Z,97611.13
2023-03-11T15:56:16.856Z,97609.84
2023-03-11T15:58:23.308Z,97616.81
2023-03-11T16:00:28.344Z,97630.78
2023-03-11T16:02:33.858Z,97632.00
2023-03-11T16:04:38.761Z,97635.03
2023-03-11T16:06:44.405Z,97642.69
2023-03-11T16:08:49.331Z,97639.28
2023-03-11T16:10:58.136Z,97648.78
2023-03-11T16:13:02.906Z,97637.88
2023-03-11T16:15:09.025Z,97634.47
2023-03-11T16:17:15.183Z,97633.38
2023-03-11T16:19:20.140Z,97629.25
2023-03-11T16:21:30.464Z,97634.56
2023-03-11T16:23:51.141Z,97628.75
2023-03-11T16:26:01.661Z,97625.63
2023-03-11T16:28:07.142Z,97634.84
2023-03-11T16:30:16.114Z,97623.16
2023-03-11T16:32:20.992Z,97630.59
2023-03-11T16:34:25.833Z,97625.47
2023-03-11T16:36:30.660Z,97626.28
2023-03-11T16:38:46.435Z,97633.47
2023-03-11T16:41:01.778Z,97642.47
2023-03-11T16:43:08.512Z,97646.03
2023-03-11T16:45:14.222Z,97641.06
2023-03-11T16:47:19.225Z,97647.81
2023-03-11T16:49:23.986Z,97647.69
2023-03-11T16:51:28.846Z,97654.59
2023-03-11T16:53:33.735Z,97656.19
2023-03-11T16:55:38.518Z,97656.75
2023-03-11T16:57:45.921Z,97657.47
2023-03-11T16:59:52.080Z,97657.59
2023-03-11T17:01:56.951Z,97665.66
2023-03-11T17:04:01.801Z,97669.16
2023-03-11T17:06:07.600Z,97664.03
2023-03-11T17:08:13.081Z,97656.25
2023-03-11T17:10:17.854Z,97667.88
2023-03-11T17:12:23.207Z,97678.94
2023-03-11T17:14:35.032Z,97688.59
2023-03-11T17:16:39.826Z,97688.78
2023-03-11T17:18:45.127Z,97691.69
2023-03-11T17:20:49.628Z,97700.47
2023-03-11T17:22:54.717Z,97710.78
2023-03-11T17:24:59.541Z,97708.13
2023-03-11T17:27:04.319Z,97708.03
2023-03-11T17:29:09.177Z,97710.69
2023-03-11T17:31:18.068Z,97714.84
2023-03-11T17:33:22.886Z,97717.44
2023-03-11T17:35:27.641Z,97712.97
2023-03-11T17:37:34.257Z,97712.88
2023-03-11T17:39:39.089Z,97713.69
2023-03-11T17:41:44.093Z,97713.44
2023-03-11T17:43:51.438Z,97723.41
2023-03-11T17:45:58.745Z,97729.56
2023-03-11T17:48:06.265Z,97725.34
2023-03-11T17:50:12.489Z,97723.53
2023-03-11T17:52:17.649Z,97725.97
2023-03-11T17:54:22.231Z,97731.34
2023-03-11T17:56:27.442Z,97735.88
2023-03-11T17:58:31.978Z,97741.16
2023-03-11T18:00:37.027Z,97744.59
2023-03-11T18:02:42.035Z,97748.97
2023-03-11T18:04:53.903Z,97750.53
2023-03-11T18:06:58.948Z,97755.50
2023-03-11T18:09:03.924Z,97753.78
2023-03-11T18:11:10.581Z,97761.66
2023-03-11T18:13:15.367Z,97752.13
2023-03-11T18:15:22.727Z,97758.91
2023-03-11T18:17:29.074Z,97767.34
2023-03-11T18:19:34.082Z,97771.78
2023-03-11T18:21:41.524Z,97771.56
2023-03-11T18:23:47.133Z,97768.81
2023-03-11T18:25:55.345Z,97765.97
2023-03-11T18:28:00.284Z,97773.44
2023-03-11T18:30:05.131Z,97762.31
2023-03-11T18:32:09.985Z,97767.47
2023-03-11T18:34:15.158Z,97771.91
2023-03-11T18:36:22.515Z,97774.69
2023-03-11T18:38:29.968Z,97769.72
2023-03-11T18:40:36.283Z,97774.22
2023-03-11T18:42:41.091Z,97769.31
2023-03-11T18:44:45.912Z,97772.78
2023-03-11T18:46:50.648Z,97773.66
2023-03-11T18:48:57.008Z,97781.69
2023-03-11T18:51:01.777Z,97785.19
2023-03-11T18:53:06.860Z,97782.75
2023-03-11T18:55:14.203Z,97783.75
2023-03-11T18:57:19.083Z,97782.16
2023-03-11T18:59:23.861Z,97777.88
2023-03-11T19:01:29.721Z,97785.50
2023-03-11T19:03:34.893Z,97781.09
2023-03-11T19:05:39.724Z,97784.69
2023-03-11T19:07:44.503Z,97788.25
2023-03-11T19:09:51.579Z,97783.16
2023-03-11T19:11:58.943Z,97784.09
2023-03-11T19:14:03.790Z,97779.88
2023-03-11T19:16:10.399Z,97785.88
2023-03-11T19:18:15.341Z,97789.38
2023-03-11T19:20:20.710Z,97792.00
2023-03-11T19:22:25.625Z,97787.78
2023-03-11T19:24:30.392Z,97786.16
2023-03-11T19:26:44.912Z,97785.25
2023-03-11T19:28:53.752Z,97792.91
2023-03-11T19:31:00.571Z,97790.31
2023-03-11T19:33:05.456Z,97789.50
2023-03-11T19:35:13.782Z,97787.97
2023-03-11T19:37:19.110Z,97789.97
2023-03-11T19:39:25.067Z,97787.50
2023-03-11T19:41:29.917Z,97797.03
2023-03-11T19:43:38.305Z,97783.34
2023-03-11T19:45:45.680Z,97785.91
2023-03-11T19:47:51.647Z,97788.69
2023-03-11T19:49:56.418Z,97781.09
2023-03-11T19:52:01.217Z,97781.28
2023-03-11T19:54:06.333Z,97788.19
2023-03-11T19:56:11.879Z,97790.78
2023-03-11T19:58:16.684Z,97791.63
2023-03-11T20:00:22.750Z,97796.81
2023-03-11T20:02:30.336Z,97798.69
2023-03-11T20:04:37.769Z,97798.75
2023-03-11T20:06:46.357Z,97804.75
2023-03-11T20:08:50.925Z,97802.34
2023-03-11T20:10:56.627Z,97803.97
2023-03-11T20:13:02.942Z,97810.06
2023-03-11T20:15:08.844Z,97810.22
2023-03-11T20:17:14.134Z,97814.50
2023-03-11T20:19:21.964Z,97812.66
2023-03-11T20:21:26.914Z,97817.91
2023-03-11T20:23:31.750Z,97812.72
2023-03-11T20:25:36.664Z,97827.47
2023-03-11T20:27:41.511Z,97824.97
2023-03-11T20:29:46.372Z,97831.78
2023-03-11T20:31:53.948Z,97829.09
2023-03-11T20:34:00.481Z,97829.94
2023-03-11T20:36:13.905Z,97829.88
2023-03-11T20:38:18.878Z,97825.50
2023-03-11T20:40:23.969Z,97824.56
2023-03-11T20:42:28.825Z,97825.38
2023-03-11T20:44:33.655Z,97824.41
2023-03-11T20:46:38.492Z,97831.25
2023-03-11T20:48:43.702Z,97829.59
2023-03-11T20:50:48.267Z,97818.56
2023-03-11T20:52:56.033Z,97827.09
2023-03-11T20:55:00.890Z,97824.53
2023-03-11T20:57:06.701Z,97821.13
2023-03-11T20:59:13.686Z,97820.25
2023-03-11T21:01:21.229Z,97821.13
2023-03-11T21:03:26.320Z,97824.56
2023-03-11T21:05:31.323Z,97817.78
2023-03-11T21:07:36.224Z,97820.41
2023-03-11T21:09:43.740Z,97819.59
2023-03-11T21:11:48.704Z,97829.09
2023-03-11T21:13:53.998Z,97830.00
2023-03-11T21:15:58.670Z,97833.47
2023-03-11T21:18:03.608Z,97836.94
2023-03-11T21:20:09.438Z,97837.81
2023-03-11T21:22:14.271Z,97831.00
2023-03-11T21:24:19.166Z,97840.47
2023-03-11T21:26:26.757Z,97841.34
2023-03-11T21:28:31.853Z,97838.84
2023-03-11T21:30:36.646Z,97844.88
2023-03-11T21:32:41.774Z,97838.97
2023-03-11T21:34:46.630Z,97850.97
2023-03-11T21:36:51.884Z,97846.00
2023-03-11T21:38:57.284Z,97857.28
2023-03-11T21:41:09.682Z,97857.59
2023-03-11T21:43:17.361Z,97857.81
2023-03-11T21:45:22.358Z,97863.91
2023-03-11T21:47:27.262Z,97859.66
2023-03-11T21:49:32.200Z,97867.41
2023-03-11T21:51:37.139Z,97861.53
2023-03-11T21:53:41.981Z,97864.09
2023-03-11T21:55:47.395Z,97852.94
2023-03-11T21:57:52.444Z,97851.16
2023-03-11T21:59:59.897Z,97850.28
2023-03-11T22:02:04.840Z,97846.91
2023-03-11T22:04:09.829Z,97852.06
2023-03-11T22:06:15.724Z,97850.38
2023-03-11T22:08:20.693Z,97850.38
2023-03-11T22:10:25.599Z,97846.97
2023-03-11T22:12:30.517Z,97846.97
2023-03-11T22:14:38.304Z,97858.94
2023-03-11T22:16:45.839Z,97847.81
2023-03-11T22:18:51.854Z,97863.22
2023-03-11T22:20:56.635Z,97858.22
2023-03-11T22:23:02.342Z,97860.84
2023-03-11T22:25:08.140Z,97861.69
2023-03-11T22:27:12.972Z,97865.97
2023-03-11T22:29:18.282Z,97873.69
2023-03-11T22:31:23.183Z,97872.03
2023-03-11T22:33:30.576Z,97875.47
2023-03-11T22:35:36.730Z,97879.81
2023-03-11T22:37:41.545Z,97891.84
2023-03-11T22:39:46.316Z,97881.63
2023-03-11T22:41:51.103Z,97887.56
2023-03-11T22:43:55.898Z,97885.84
2023-03-11T22:46:02.340Z,97875.53
2023-03-11T22:48:07.740Z,97869.50
2023-03-11T22:50:15.207Z,97867.84
2023-03-11T22:52:21.497Z,97873.94
2023-03-11T22:54:26.358Z,97873.06
2023-03-11T22:56:31.319Z,97879.91
2023-03-11T22:58:36.143Z,97885.94
2023-03-11T23:00:44.125Z,97882.59
2023-03-11T23:02:49.103Z,97887.72
2023-03-11T23:04:53.755Z,97890.38
2023-03-11T23:07:01.003Z,97889.44
2023-03-11T23:09:06.186Z,97894.53
2023-03-11T23:11:12.280Z,97891.97
2023-03-11T23:13:17.400Z,97891.13
2023-03-11T23:15:22.198Z,97891.06
2023-03-11T23:17:26.771Z,97897.03
2023-03-11T23:19:31.424Z,97900.44
2023-03-11T23:21:36.458Z,97898.72
2023-03-11T23:23:43.535Z,97892.75
2023-03-11T23:25:48.069Z,97899.63
2023-03-11T23:27:52.533Z,97898.75
2023-03-11T23:29:57.069Z,97890.16
2023-03-11T23:32:01.614Z,97892.78
2023-03-11T23:34:06.706Z,97892.78
2023-03-11T23:36:12.373Z,97899.66
2023-03-11T23:38:16.942Z,97896.19
2023-03-11T23:40:24.162Z,97902.13
2023-03-11T23:42:28.823Z,97904.56
2023-03-11T23:44:33.293Z,97891.63
2023-03-11T23:46:37.825Z,97901.81
2023-03-11T23:48:42.460Z,97901.78
2023-03-11T23:50:48.008Z,97900.09
2023-03-11T23:52:52.500Z,97904.34
2023-03-11T23:54:57.800Z,97911.16
2023-03-11T23:57:04.985Z,97908.63
2023-03-11T23:59:09.566Z,97901.84
